sensor_id;sensor_type;location;lat;lon;timestamp;temperature;humidity
63277;DHT22;49403;51.046;13.780;2023-12-22T00:00:21;7.40;91.50
63277;DHT22;49403;51.046;13.780;2023-12-22T00:00:52;7.00;91.30
63277;DHT22;49403;51.046;13.780;2023-12-22T00:01:23;7.10;91.30
63277;DHT22;49403;51.046;13.780;2023-12-22T00:01:54;7.40;91.50
63277;DHT22;49403;51.046;13.780;2023-12-22T00:02:24;7.40;91.50
63277;DHT22;49403;51.046;13.780;2023-12-22T00:02:56;8.00;91.70
63277;DHT22;49403;51.046;13.780;2023-12-22T00:03:27;7.30;91.40
63277;DHT22;49403;51.046;13.780;2023-12-22T00:03:57;7.40;91.40
63277;DHT22;49403;51.046;13.780;2023-12-22T00:04:28;7.40;91.30
63277;DHT22;49403;51.046;13.780;2023-12-22T00:04:59;7.10;91.20
63277;DHT22;49403;51.046;13.780;2023-12-22T00:05:30;7.40;91.30
63277;DHT22;49403;51.046;13.780;2023-12-22T00:06:00;7.40;91.30
63277;DHT22;49403;51.046;13.780;2023-12-22T00:06:31;7.40;91.40
63277;DHT22;49403;51.046;13.780;2023-12-22T00:07:02;7.40;91.30
63277;DHT22;49403;51.046;13.780;2023-12-22T00:07:33;7.30;91.10
63277;DHT22;49403;51.046;13.780;2023-12-22T00:08:04;7.20;91.00
63277;DHT22;49403;51.046;13.780;2023-12-22T00:08:35;7.40;91.00
63277;DHT22;49403;51.046;13.780;2023-12-22T00:09:05;7.30;91.10
63277;DHT22;49403;51.046;13.780;2023-12-22T00:09:36;7.40;91.00
63277;DHT22;49403;51.046;13.780;2023-12-22T00:10:07;7.40;91.00
63277;DHT22;49403;51.046;13.780;2023-12-22T00:10:39;7.40;90.90
63277;DHT22;49403;51.046;13.780;2023-12-22T00:11:11;7.40;91.00
63277;DHT22;49403;51.046;13.780;2023-12-22T00:11:42;7.40;90.90
63277;DHT22;49403;51.046;13.780;2023-12-22T00:12:13;7.40;91.10
63277;DHT22;49403;51.046;13.780;2023-12-22T00:12:43;7.40;90.80
63277;DHT22;49403;51.046;13.780;2023-12-22T00:13:14;7.40;90.70
63277;DHT22;49403;51.046;13.780;2023-12-22T00:13:45;7.40;90.80
63277;DHT22;49403;51.046;13.780;2023-12-22T00:14:16;6.60;90.50
63277;DHT22;49403;51.046;13.780;2023-12-22T00:14:46;7.40;90.90
63277;DHT22;49403;51.046;13.780;2023-12-22T00:15:17;7.40;90.80
63277;DHT22;49403;51.046;13.780;2023-12-22T00:15:48;7.40;90.90
63277;DHT22;49403;51.046;13.780;2023-12-22T00:16:19;7.40;90.70
63277;DHT22;49403;51.046;13.780;2023-12-22T00:16:49;7.50;90.60
63277;DHT22;49403;51.046;13.780;2023-12-22T00:17:20;7.40;90.70
63277;DHT22;49403;51.046;13.780;2023-12-22T00:17:51;7.40;90.60
63277;DHT22;49403;51.046;13.780;2023-12-22T00:18:22;7.40;90.70
63277;DHT22;49403;51.046;13.780;2023-12-22T00:18:52;9.00;91.50
63277;DHT22;49403;51.046;13.780;2023-12-22T00:19:24;7.40;90.80
63277;DHT22;49403;51.046;13.780;2023-12-22T00:19:55;7.40;90.70
63277;DHT22;49403;51.046;13.780;2023-12-22T00:20:29;7.40;90.60
63277;DHT22;49403;51.046;13.780;2023-12-22T00:21:00;7.40;90.60
63277;DHT22;49403;51.046;13.780;2023-12-22T00:21:30;7.40;90.70
63277;DHT22;49403;51.046;13.780;2023-12-22T00:22:02;7.40;90.70
63277;DHT22;49403;51.046;13.780;2023-12-22T00:22:34;7.40;90.90
63277;DHT22;49403;51.046;13.780;2023-12-22T00:23:04;7.40;90.70
63277;DHT22;49403;51.046;13.780;2023-12-22T00:23:35;7.40;90.80
63277;DHT22;49403;51.046;13.780;2023-12-22T00:24:06;7.40;90.70
63277;DHT22;49403;51.046;13.780;2023-12-22T00:24:37;7.40;90.70
63277;DHT22;49403;51.046;13.780;2023-12-22T00:25:08;7.30;90.60
63277;DHT22;49403;51.046;13.780;2023-12-22T00:25:40;7.40;90.60
63277;DHT22;49403;51.046;13.780;2023-12-22T00:26:11;7.30;90.60
63277;DHT22;49403;51.046;13.780;2023-12-22T00:26:41;7.40;90.60
63277;DHT22;49403;51.046;13.780;2023-12-22T00:27:12;7.40;90.60
63277;DHT22;49403;51.046;13.780;2023-12-22T00:27:43;7.40;90.60
63277;DHT22;49403;51.046;13.780;2023-12-22T00:28:14;7.40;90.60
63277;DHT22;49403;51.046;13.780;2023-12-22T00:28:44;7.40;90.50
63277;DHT22;49403;51.046;13.780;2023-12-22T00:29:15;7.40;90.40
63277;DHT22;49403;51.046;13.780;2023-12-22T00:29:46;7.50;90.40
63277;DHT22;49403;51.046;13.780;2023-12-22T00:30:17;7.50;90.20
63277;DHT22;49403;51.046;13.780;2023-12-22T00:30:48;7.50;90.30
63277;DHT22;49403;51.046;13.780;2023-12-22T00:31:19;7.50;90.30
63277;DHT22;49403;51.046;13.780;2023-12-22T00:31:49;6.80;90.10
63277;DHT22;49403;51.046;13.780;2023-12-22T00:32:20;7.40;90.20
63277;DHT22;49403;51.046;13.780;2023-12-22T00:32:51;7.40;90.10
63277;DHT22;49403;51.046;13.780;2023-12-22T00:33:22;7.40;90.10
63277;DHT22;49403;51.046;13.780;2023-12-22T00:33:52;7.40;90.20
63277;DHT22;49403;51.046;13.780;2023-12-22T00:34:23;7.40;90.20
63277;DHT22;49403;51.046;13.780;2023-12-22T00:34:54;7.40;90.00
63277;DHT22;49403;51.046;13.780;2023-12-22T00:35:24;7.40;90.00
63277;DHT22;49403;51.046;13.780;2023-12-22T00:35:55;7.40;90.00
63277;DHT22;49403;51.046;13.780;2023-12-22T00:36:26;7.40;89.70
63277;DHT22;49403;51.046;13.780;2023-12-22T00:36:57;7.40;89.70
63277;DHT22;49403;51.046;13.780;2023-12-22T00:37:28;7.30;89.60
63277;DHT22;49403;51.046;13.780;2023-12-22T00:37:58;7.50;89.90
63277;DHT22;49403;51.046;13.780;2023-12-22T00:38:29;7.50;89.90
63277;DHT22;49403;51.046;13.780;2023-12-22T00:39:00;7.50;90.00
63277;DHT22;49403;51.046;13.780;2023-12-22T00:39:31;7.70;90.00
63277;DHT22;49403;51.046;13.780;2023-12-22T00:40:02;7.50;89.70
63277;DHT22;49403;51.046;13.780;2023-12-22T00:40:35;7.50;89.60
63277;DHT22;49403;51.046;13.780;2023-12-22T00:41:06;7.50;89.80
63277;DHT22;49403;51.046;13.780;2023-12-22T00:41:37;6.70;89.00
63277;DHT22;49403;51.046;13.780;2023-12-22T00:42:08;7.70;90.00
63277;DHT22;49403;51.046;13.780;2023-12-22T00:42:39;7.60;89.90
63277;DHT22;49403;51.046;13.780;2023-12-22T00:43:09;7.60;89.80
63277;DHT22;49403;51.046;13.780;2023-12-22T00:43:40;7.30;89.60
63277;DHT22;49403;51.046;13.780;2023-12-22T00:44:11;7.60;90.30
63277;DHT22;49403;51.046;13.780;2023-12-22T00:44:42;7.50;89.60
63277;DHT22;49403;51.046;13.780;2023-12-22T00:45:12;7.50;89.80
63277;DHT22;49403;51.046;13.780;2023-12-22T00:45:43;7.50;89.70
63277;DHT22;49403;51.046;13.780;2023-12-22T00:46:14;7.40;89.80
63277;DHT22;49403;51.046;13.780;2023-12-22T00:46:45;7.50;89.90
63277;DHT22;49403;51.046;13.780;2023-12-22T00:47:16;7.50;90.00
63277;DHT22;49403;51.046;13.780;2023-12-22T00:47:47;7.50;90.00
63277;DHT22;49403;51.046;13.780;2023-12-22T00:48:17;7.50;90.00
63277;DHT22;49403;51.046;13.780;2023-12-22T00:48:48;6.00;88.80
63277;DHT22;49403;51.046;13.780;2023-12-22T00:49:19;7.50;90.40
63277;DHT22;49403;51.046;13.780;2023-12-22T00:49:52;7.50;90.00
63277;DHT22;49403;51.046;13.780;2023-12-22T00:50:23;7.50;90.00
63277;DHT22;49403;51.046;13.780;2023-12-22T00:50:53;7.60;90.00
63277;DHT22;49403;51.046;13.780;2023-12-22T00:51:24;7.60;89.90
63277;DHT22;49403;51.046;13.780;2023-12-22T00:51:55;7.60;90.00
63277;DHT22;49403;51.046;13.780;2023-12-22T00:52:26;7.60;90.00
63277;DHT22;49403;51.046;13.780;2023-12-22T00:52:57;7.70;90.10
63277;DHT22;49403;51.046;13.780;2023-12-22T00:53:27;7.70;90.00
63277;DHT22;49403;51.046;13.780;2023-12-22T00:53:58;7.70;90.00
63277;DHT22;49403;51.046;13.780;2023-12-22T00:54:29;7.70;89.70
63277;DHT22;49403;51.046;13.780;2023-12-22T00:55:02;7.70;89.30
63277;DHT22;49403;51.046;13.780;2023-12-22T00:55:32;7.70;88.90
63277;DHT22;49403;51.046;13.780;2023-12-22T00:56:03;7.80;88.80
63277;DHT22;49403;51.046;13.780;2023-12-22T00:56:34;7.80;88.80
63277;DHT22;49403;51.046;13.780;2023-12-22T00:57:05;7.80;88.80
63277;DHT22;49403;51.046;13.780;2023-12-22T00:57:36;7.80;88.60
63277;DHT22;49403;51.046;13.780;2023-12-22T00:58:06;7.80;88.50
63277;DHT22;49403;51.046;13.780;2023-12-22T00:58:37;8.20;88.80
63277;DHT22;49403;51.046;13.780;2023-12-22T00:59:08;7.80;88.50
63277;DHT22;49403;51.046;13.780;2023-12-22T00:59:39;7.70;88.70
63277;DHT22;49403;51.046;13.780;2023-12-22T01:00:16;7.80;88.30
63277;DHT22;49403;51.046;13.780;2023-12-22T01:00:47;7.80;87.50
63277;DHT22;49403;51.046;13.780;2023-12-22T01:01:18;7.70;87.80
63277;DHT22;49403;51.046;13.780;2023-12-22T01:01:48;7.70;88.00
63277;DHT22;49403;51.046;13.780;2023-12-22T01:02:19;7.70;87.90
63277;DHT22;49403;51.046;13.780;2023-12-22T01:02:50;7.70;87.70
63277;DHT22;49403;51.046;13.780;2023-12-22T01:03:21;7.70;87.50
63277;DHT22;49403;51.046;13.780;2023-12-22T01:03:52;7.70;87.30
63277;DHT22;49403;51.046;13.780;2023-12-22T01:04:23;7.70;87.50
63277;DHT22;49403;51.046;13.780;2023-12-22T01:04:54;7.70;87.90
63277;DHT22;49403;51.046;13.780;2023-12-22T01:05:25;7.70;87.30
63277;DHT22;49403;51.046;13.780;2023-12-22T01:05:55;7.80;87.30
63277;DHT22;49403;51.046;13.780;2023-12-22T01:06:26;7.70;87.30
63277;DHT22;49403;51.046;13.780;2023-12-22T01:06:57;7.80;86.90
63277;DHT22;49403;51.046;13.780;2023-12-22T01:07:27;7.80;86.50
63277;DHT22;49403;51.046;13.780;2023-12-22T01:07:58;7.80;86.40
63277;DHT22;49403;51.046;13.780;2023-12-22T01:08:29;7.80;86.40
63277;DHT22;49403;51.046;13.780;2023-12-22T01:09:00;7.70;86.20
63277;DHT22;49403;51.046;13.780;2023-12-22T01:09:31;7.80;86.40
63277;DHT22;49403;51.046;13.780;2023-12-22T01:10:02;7.80;86.40
63277;DHT22;49403;51.046;13.780;2023-12-22T01:10:34;7.80;86.80
63277;DHT22;49403;51.046;13.780;2023-12-22T01:11:05;7.70;86.60
63277;DHT22;49403;51.046;13.780;2023-12-22T01:11:35;7.80;86.60
63277;DHT22;49403;51.046;13.780;2023-12-22T01:12:06;7.90;86.50
63277;DHT22;49403;51.046;13.780;2023-12-22T01:12:38;7.80;86.50
63277;DHT22;49403;51.046;13.780;2023-12-22T01:13:09;7.80;86.40
63277;DHT22;49403;51.046;13.780;2023-12-22T01:13:39;7.80;86.70
63277;DHT22;49403;51.046;13.780;2023-12-22T01:14:10;7.80;86.70
63277;DHT22;49403;51.046;13.780;2023-12-22T01:14:43;7.80;86.60
63277;DHT22;49403;51.046;13.780;2023-12-22T01:15:15;7.80;86.80
63277;DHT22;49403;51.046;13.780;2023-12-22T01:15:46;7.80;86.60
63277;DHT22;49403;51.046;13.780;2023-12-22T01:16:17;7.80;86.40
63277;DHT22;49403;51.046;13.780;2023-12-22T01:16:50;7.80;86.40
63277;DHT22;49403;51.046;13.780;2023-12-22T01:17:20;7.80;86.50
63277;DHT22;49403;51.046;13.780;2023-12-22T01:17:51;9.10;87.80
63277;DHT22;49403;51.046;13.780;2023-12-22T01:18:22;7.70;86.90
63277;DHT22;49403;51.046;13.780;2023-12-22T01:18:53;7.60;86.90
63277;DHT22;49403;51.046;13.780;2023-12-22T01:19:23;7.70;87.30
63277;DHT22;49403;51.046;13.780;2023-12-22T01:19:54;7.80;87.60
63277;DHT22;49403;51.046;13.780;2023-12-22T01:20:25;7.70;87.20
63277;DHT22;49403;51.046;13.780;2023-12-22T01:20:56;7.80;87.30
63277;DHT22;49403;51.046;13.780;2023-12-22T01:21:27;7.70;87.40
63277;DHT22;49403;51.046;13.780;2023-12-22T01:21:58;7.80;87.10
63277;DHT22;49403;51.046;13.780;2023-12-22T01:22:29;7.80;87.50
63277;DHT22;49403;51.046;13.780;2023-12-22T01:23:01;7.80;87.60
63277;DHT22;49403;51.046;13.780;2023-12-22T01:23:32;7.70;87.50
63277;DHT22;49403;51.046;13.780;2023-12-22T01:24:03;7.80;87.40
63277;DHT22;49403;51.046;13.780;2023-12-22T01:24:34;7.00;86.00
63277;DHT22;49403;51.046;13.780;2023-12-22T01:25:09;6.60;85.10
63277;DHT22;49403;51.046;13.780;2023-12-22T01:25:40;7.80;86.40
63277;DHT22;49403;51.046;13.780;2023-12-22T01:26:11;7.70;86.40
63277;DHT22;49403;51.046;13.780;2023-12-22T01:26:42;7.70;86.50
63277;DHT22;49403;51.046;13.780;2023-12-22T01:27:13;7.70;86.40
63277;DHT22;49403;51.046;13.780;2023-12-22T01:27:43;7.70;86.60
63277;DHT22;49403;51.046;13.780;2023-12-22T01:28:14;7.70;86.60
63277;DHT22;49403;51.046;13.780;2023-12-22T01:28:45;7.70;86.50
63277;DHT22;49403;51.046;13.780;2023-12-22T01:29:16;7.70;86.50
63277;DHT22;49403;51.046;13.780;2023-12-22T01:29:46;7.70;86.90
63277;DHT22;49403;51.046;13.780;2023-12-22T01:30:17;7.70;87.70
63277;DHT22;49403;51.046;13.780;2023-12-22T01:30:49;7.70;86.20
63277;DHT22;49403;51.046;13.780;2023-12-22T01:31:19;7.70;86.60
63277;DHT22;49403;51.046;13.780;2023-12-22T01:31:50;6.70;85.80
63277;DHT22;49403;51.046;13.780;2023-12-22T01:32:21;8.70;87.70
63277;DHT22;49403;51.046;13.780;2023-12-22T01:32:52;7.70;86.80
63277;DHT22;49403;51.046;13.780;2023-12-22T01:33:22;7.70;87.20
63277;DHT22;49403;51.046;13.780;2023-12-22T01:33:53;7.60;87.00
63277;DHT22;49403;51.046;13.780;2023-12-22T01:34:24;7.70;87.10
63277;DHT22;49403;51.046;13.780;2023-12-22T01:34:55;7.70;87.00
63277;DHT22;49403;51.046;13.780;2023-12-22T01:35:25;7.70;87.20
63277;DHT22;49403;51.046;13.780;2023-12-22T01:35:56;7.70;87.20
63277;DHT22;49403;51.046;13.780;2023-12-22T01:36:27;7.70;87.10
63277;DHT22;49403;51.046;13.780;2023-12-22T01:36:58;7.80;87.20
63277;DHT22;49403;51.046;13.780;2023-12-22T01:37:29;7.80;87.10
63277;DHT22;49403;51.046;13.780;2023-12-22T01:38:00;7.80;86.40
63277;DHT22;49403;51.046;13.780;2023-12-22T01:38:31;7.80;86.70
63277;DHT22;49403;51.046;13.780;2023-12-22T01:39:01;7.80;87.60
63277;DHT22;49403;51.046;13.780;2023-12-22T01:39:32;7.80;86.70
63277;DHT22;49403;51.046;13.780;2023-12-22T01:40:03;7.80;86.70
63277;DHT22;49403;51.046;13.780;2023-12-22T01:40:35;7.80;87.10
63277;DHT22;49403;51.046;13.780;2023-12-22T01:41:06;7.80;86.80
63277;DHT22;49403;51.046;13.780;2023-12-22T01:41:39;7.80;87.20
63277;DHT22;49403;51.046;13.780;2023-12-22T01:42:09;7.80;86.40
63277;DHT22;49403;51.046;13.780;2023-12-22T01:42:40;7.80;86.20
63277;DHT22;49403;51.046;13.780;2023-12-22T01:43:11;7.80;86.40
63277;DHT22;49403;51.046;13.780;2023-12-22T01:43:43;7.80;86.40
63277;DHT22;49403;51.046;13.780;2023-12-22T01:44:14;7.70;86.00
63277;DHT22;49403;51.046;13.780;2023-12-22T01:44:45;7.80;86.20
63277;DHT22;49403;51.046;13.780;2023-12-22T01:45:16;7.80;86.10
63277;DHT22;49403;51.046;13.780;2023-12-22T01:45:47;7.70;86.20
63277;DHT22;49403;51.046;13.780;2023-12-22T01:46:19;7.80;85.70
63277;DHT22;49403;51.046;13.780;2023-12-22T01:46:50;7.80;85.90
63277;DHT22;49403;51.046;13.780;2023-12-22T01:47:21;7.70;86.20
63277;DHT22;49403;51.046;13.780;2023-12-22T01:47:53;7.70;85.80
63277;DHT22;49403;51.046;13.780;2023-12-22T01:48:25;7.70;86.30
63277;DHT22;49403;51.046;13.780;2023-12-22T01:48:56;7.70;86.00
63277;DHT22;49403;51.046;13.780;2023-12-22T01:49:27;7.80;86.70
63277;DHT22;49403;51.046;13.780;2023-12-22T01:50:00;7.80;86.40
63277;DHT22;49403;51.046;13.780;2023-12-22T01:50:31;7.70;86.50
63277;DHT22;49403;51.046;13.780;2023-12-22T01:51:03;7.80;86.60
63277;DHT22;49403;51.046;13.780;2023-12-22T01:51:37;7.80;86.50
63277;DHT22;49403;51.046;13.780;2023-12-22T01:52:10;7.80;86.60
63277;DHT22;49403;51.046;13.780;2023-12-22T01:52:42;7.90;86.70
63277;DHT22;49403;51.046;13.780;2023-12-22T01:53:14;7.80;86.40
63277;DHT22;49403;51.046;13.780;2023-12-22T01:53:46;7.60;86.50
63277;DHT22;49403;51.046;13.780;2023-12-22T01:54:17;7.90;86.80
63277;DHT22;49403;51.046;13.780;2023-12-22T01:54:48;7.80;86.40
63277;DHT22;49403;51.046;13.780;2023-12-22T01:55:20;7.80;86.00
63277;DHT22;49403;51.046;13.780;2023-12-22T01:55:52;7.80;86.20
63277;DHT22;49403;51.046;13.780;2023-12-22T01:56:25;7.80;86.40
63277;DHT22;49403;51.046;13.780;2023-12-22T01:56:56;7.80;87.20
63277;DHT22;49403;51.046;13.780;2023-12-22T01:57:27;7.80;86.60
63277;DHT22;49403;51.046;13.780;2023-12-22T01:57:59;7.80;86.60
63277;DHT22;49403;51.046;13.780;2023-12-22T01:58:32;7.70;86.00
63277;DHT22;49403;51.046;13.780;2023-12-22T01:59:03;7.70;86.30
63277;DHT22;49403;51.046;13.780;2023-12-22T01:59:34;7.70;86.90
63277;DHT22;49403;51.046;13.780;2023-12-22T02:00:06;6.50;85.70
63277;DHT22;49403;51.046;13.780;2023-12-22T02:00:37;7.70;86.50
63277;DHT22;49403;51.046;13.780;2023-12-22T02:01:08;7.70;86.30
63277;DHT22;49403;51.046;13.780;2023-12-22T02:01:39;7.70;86.60
63277;DHT22;49403;51.046;13.780;2023-12-22T02:02:10;7.40;86.20
63277;DHT22;49403;51.046;13.780;2023-12-22T02:02:41;7.70;87.60
63277;DHT22;49403;51.046;13.780;2023-12-22T02:03:16;7.70;87.40
63277;DHT22;49403;51.046;13.780;2023-12-22T02:03:51;7.70;87.30
63277;DHT22;49403;51.046;13.780;2023-12-22T02:04:24;7.60;87.20
63277;DHT22;49403;51.046;13.780;2023-12-22T02:04:54;7.60;88.10
63277;DHT22;49403;51.046;13.780;2023-12-22T02:05:25;7.70;88.00
63277;DHT22;49403;51.046;13.780;2023-12-22T02:05:56;7.70;87.80
63277;DHT22;49403;51.046;13.780;2023-12-22T02:06:30;7.70;87.60
63277;DHT22;49403;51.046;13.780;2023-12-22T02:07:01;7.70;87.70
63277;DHT22;49403;51.046;13.780;2023-12-22T02:07:32;7.70;88.80
63277;DHT22;49403;51.046;13.780;2023-12-22T02:08:04;7.60;89.40
63277;DHT22;49403;51.046;13.780;2023-12-22T02:08:35;7.70;89.30
63277;DHT22;49403;51.046;13.780;2023-12-22T02:09:07;7.70;90.30
63277;DHT22;49403;51.046;13.780;2023-12-22T02:09:37;7.70;90.10
63277;DHT22;49403;51.046;13.780;2023-12-22T02:10:09;7.70;89.80
63277;DHT22;49403;51.046;13.780;2023-12-22T02:10:39;7.70;89.50
63277;DHT22;49403;51.046;13.780;2023-12-22T02:11:11;7.70;89.00
63277;DHT22;49403;51.046;13.780;2023-12-22T02:11:42;7.60;89.60
63277;DHT22;49403;51.046;13.780;2023-12-22T02:12:12;7.60;89.80
63277;DHT22;49403;51.046;13.780;2023-12-22T02:12:43;7.50;89.90
63277;DHT22;49403;51.046;13.780;2023-12-22T02:13:14;7.50;90.50
63277;DHT22;49403;51.046;13.780;2023-12-22T02:13:46;7.50;90.20
63277;DHT22;49403;51.046;13.780;2023-12-22T02:14:16;7.40;90.40
63277;DHT22;49403;51.046;13.780;2023-12-22T02:14:47;7.40;90.50
63277;DHT22;49403;51.046;13.780;2023-12-22T02:15:18;7.40;90.60
63277;DHT22;49403;51.046;13.780;2023-12-22T02:16:00;7.40;90.70
63277;DHT22;49403;51.046;13.780;2023-12-22T02:17:55;7.50;90.60
63277;DHT22;49403;51.046;13.780;2023-12-22T02:18:29;7.60;90.70
63277;DHT22;49403;51.046;13.780;2023-12-22T02:19:55;7.50;90.70
63277;DHT22;49403;51.046;13.780;2023-12-22T02:20:01;7.50;90.70
63277;DHT22;49403;51.046;13.780;2023-12-22T02:20:32;7.40;90.50
63277;DHT22;49403;51.046;13.780;2023-12-22T02:21:03;7.40;90.50
63277;DHT22;49403;51.046;13.780;2023-12-22T02:21:34;7.40;90.60
63277;DHT22;49403;51.046;13.780;2023-12-22T02:22:08;7.30;90.50
63277;DHT22;49403;51.046;13.780;2023-12-22T02:22:39;7.30;90.40
63277;DHT22;49403;51.046;13.780;2023-12-22T02:23:10;7.20;90.80
63277;DHT22;49403;51.046;13.780;2023-12-22T02:23:41;7.20;90.80
63277;DHT22;49403;51.046;13.780;2023-12-22T02:24:12;7.20;90.80
63277;DHT22;49403;51.046;13.780;2023-12-22T02:24:42;7.10;91.00
63277;DHT22;49403;51.046;13.780;2023-12-22T02:25:13;7.10;91.10
63277;DHT22;49403;51.046;13.780;2023-12-22T02:25:44;7.10;91.10
63277;DHT22;49403;51.046;13.780;2023-12-22T02:26:31;7.10;91.10
63277;DHT22;49403;51.046;13.780;2023-12-22T02:27:28;7.20;90.90
63277;DHT22;49403;51.046;13.780;2023-12-22T02:28:05;7.10;90.90
63277;DHT22;49403;51.046;13.780;2023-12-22T02:28:39;7.20;90.80
63277;DHT22;49403;51.046;13.780;2023-12-22T02:29:13;7.10;90.80
63277;DHT22;49403;51.046;13.780;2023-12-22T02:29:49;7.10;90.80
63277;DHT22;49403;51.046;13.780;2023-12-22T02:30:32;7.10;90.90
63277;DHT22;49403;51.046;13.780;2023-12-22T02:31:46;7.00;90.80
63277;DHT22;49403;51.046;13.780;2023-12-22T02:32:20;7.00;90.80
63277;DHT22;49403;51.046;13.780;2023-12-22T02:32:56;7.00;91.10
63277;DHT22;49403;51.046;13.780;2023-12-22T02:33:28;7.00;91.00
63277;DHT22;49403;51.046;13.780;2023-12-22T02:34:00;7.00;91.00
63277;DHT22;49403;51.046;13.780;2023-12-22T02:34:35;7.10;91.10
63277;DHT22;49403;51.046;13.780;2023-12-22T02:35:11;7.10;91.10
63277;DHT22;49403;51.046;13.780;2023-12-22T02:35:46;7.10;91.30
63277;DHT22;49403;51.046;13.780;2023-12-22T02:36:20;7.10;90.90
63277;DHT22;49403;51.046;13.780;2023-12-22T02:36:53;7.10;90.90
63277;DHT22;49403;51.046;13.780;2023-12-22T02:37:26;7.10;90.90
63277;DHT22;49403;51.046;13.780;2023-12-22T02:37:59;7.10;90.90
63277;DHT22;49403;51.046;13.780;2023-12-22T02:38:31;7.10;90.80
63277;DHT22;49403;51.046;13.780;2023-12-22T02:39:04;7.10;90.70
63277;DHT22;49403;51.046;13.780;2023-12-22T02:39:35;7.10;90.60
63277;DHT22;49403;51.046;13.780;2023-12-22T02:40:07;7.10;90.70
63277;DHT22;49403;51.046;13.780;2023-12-22T02:40:39;7.10;90.70
63277;DHT22;49403;51.046;13.780;2023-12-22T02:41:10;6.70;90.60
63277;DHT22;49403;51.046;13.780;2023-12-22T02:41:42;7.10;90.70
63277;DHT22;49403;51.046;13.780;2023-12-22T02:42:13;7.00;90.60
63277;DHT22;49403;51.046;13.780;2023-12-22T02:42:44;7.10;90.60
63277;DHT22;49403;51.046;13.780;2023-12-22T02:43:15;8.50;91.20
63277;DHT22;49403;51.046;13.780;2023-12-22T02:43:46;7.10;90.60
63277;DHT22;49403;51.046;13.780;2023-12-22T02:44:17;7.10;90.70
63277;DHT22;49403;51.046;13.780;2023-12-22T02:44:48;7.10;90.70
63277;DHT22;49403;51.046;13.780;2023-12-22T02:45:19;7.10;90.70
63277;DHT22;49403;51.046;13.780;2023-12-22T02:45:51;7.10;90.50
63277;DHT22;49403;51.046;13.780;2023-12-22T02:46:22;7.00;90.70
63277;DHT22;49403;51.046;13.780;2023-12-22T02:46:52;7.00;90.80
63277;DHT22;49403;51.046;13.780;2023-12-22T02:47:23;7.10;90.70
63277;DHT22;49403;51.046;13.780;2023-12-22T02:47:54;6.80;90.60
63277;DHT22;49403;51.046;13.780;2023-12-22T02:48:25;7.00;90.70
63277;DHT22;49403;51.046;13.780;2023-12-22T02:48:55;7.00;90.80
63277;DHT22;49403;51.046;13.780;2023-12-22T02:49:26;6.90;90.80
63277;DHT22;49403;51.046;13.780;2023-12-22T02:49:57;6.90;90.90
63277;DHT22;49403;51.046;13.780;2023-12-22T02:50:28;7.00;90.90
63277;DHT22;49403;51.046;13.780;2023-12-22T02:50:59;6.90;90.90
63277;DHT22;49403;51.046;13.780;2023-12-22T02:51:29;6.80;90.80
63277;DHT22;49403;51.046;13.780;2023-12-22T02:52:00;6.90;90.80
63277;DHT22;49403;51.046;13.780;2023-12-22T02:52:31;6.90;90.80
63277;DHT22;49403;51.046;13.780;2023-12-22T02:53:03;6.00;90.30
63277;DHT22;49403;51.046;13.780;2023-12-22T02:53:33;6.90;90.80
63277;DHT22;49403;51.046;13.780;2023-12-22T02:54:04;6.90;90.70
63277;DHT22;49403;51.046;13.780;2023-12-22T02:54:35;6.90;90.70
63277;DHT22;49403;51.046;13.780;2023-12-22T02:55:06;6.90;90.90
63277;DHT22;49403;51.046;13.780;2023-12-22T02:55:37;6.90;90.90
63277;DHT22;49403;51.046;13.780;2023-12-22T02:56:08;6.90;91.00
63277;DHT22;49403;51.046;13.780;2023-12-22T02:56:38;6.90;91.00
63277;DHT22;49403;51.046;13.780;2023-12-22T02:57:09;6.90;90.90
63277;DHT22;49403;51.046;13.780;2023-12-22T02:57:40;7.50;91.00
63277;DHT22;49403;51.046;13.780;2023-12-22T02:58:11;6.90;90.60
63277;DHT22;49403;51.046;13.780;2023-12-22T02:58:42;6.90;90.60
63277;DHT22;49403;51.046;13.780;2023-12-22T02:59:13;6.90;90.70
63277;DHT22;49403;51.046;13.780;2023-12-22T02:59:43;6.90;90.80
63277;DHT22;49403;51.046;13.780;2023-12-22T03:00:14;7.00;90.70
63277;DHT22;49403;51.046;13.780;2023-12-22T03:00:45;7.00;90.60
63277;DHT22;49403;51.046;13.780;2023-12-22T03:01:17;7.00;90.60
63277;DHT22;49403;51.046;13.780;2023-12-22T03:01:47;7.00;90.60
63277;DHT22;49403;51.046;13.780;2023-12-22T03:02:18;7.10;90.50
63277;DHT22;49403;51.046;13.780;2023-12-22T03:02:49;7.10;90.30
63277;DHT22;49403;51.046;13.780;2023-12-22T03:03:20;7.10;90.30
63277;DHT22;49403;51.046;13.780;2023-12-22T03:03:50;7.10;90.20
63277;DHT22;49403;51.046;13.780;2023-12-22T03:04:21;7.20;90.20
63277;DHT22;49403;51.046;13.780;2023-12-22T03:04:52;7.10;90.00
63277;DHT22;49403;51.046;13.780;2023-12-22T03:05:23;7.20;89.80
63277;DHT22;49403;51.046;13.780;2023-12-22T03:05:53;7.20;89.50
63277;DHT22;49403;51.046;13.780;2023-12-22T03:06:24;7.20;89.70
63277;DHT22;49403;51.046;13.780;2023-12-22T03:06:55;7.20;89.70
63277;DHT22;49403;51.046;13.780;2023-12-22T03:07:26;7.20;89.70
63277;DHT22;49403;51.046;13.780;2023-12-22T03:07:56;7.20;89.50
63277;DHT22;49403;51.046;13.780;2023-12-22T03:08:27;7.10;89.50
63277;DHT22;49403;51.046;13.780;2023-12-22T03:08:58;6.30;88.30
63277;DHT22;49403;51.046;13.780;2023-12-22T03:09:29;7.20;89.20
63277;DHT22;49403;51.046;13.780;2023-12-22T03:09:59;7.20;89.20
63277;DHT22;49403;51.046;13.780;2023-12-22T03:10:30;7.20;89.30
63277;DHT22;49403;51.046;13.780;2023-12-22T03:11:01;7.30;89.40
63277;DHT22;49403;51.046;13.780;2023-12-22T03:11:32;7.30;89.30
63277;DHT22;49403;51.046;13.780;2023-12-22T03:12:03;7.30;89.40
63277;DHT22;49403;51.046;13.780;2023-12-22T03:12:34;7.30;90.00
63277;DHT22;49403;51.046;13.780;2023-12-22T03:13:04;7.30;90.00
63277;DHT22;49403;51.046;13.780;2023-12-22T03:13:35;7.30;89.90
63277;DHT22;49403;51.046;13.780;2023-12-22T03:14:06;7.30;89.80
63277;DHT22;49403;51.046;13.780;2023-12-22T03:14:37;6.50;89.20
63277;DHT22;49403;51.046;13.780;2023-12-22T03:15:08;7.30;90.10
63277;DHT22;49403;51.046;13.780;2023-12-22T03:15:39;7.30;90.10
63277;DHT22;49403;51.046;13.780;2023-12-22T03:16:10;7.30;90.30
63277;DHT22;49403;51.046;13.780;2023-12-22T03:16:41;7.30;90.40
63277;DHT22;49403;51.046;13.780;2023-12-22T03:17:11;7.30;90.20
63277;DHT22;49403;51.046;13.780;2023-12-22T03:17:42;8.50;90.80
63277;DHT22;49403;51.046;13.780;2023-12-22T03:18:13;6.00;89.30
63277;DHT22;49403;51.046;13.780;2023-12-22T03:18:44;7.20;90.40
63277;DHT22;49403;51.046;13.780;2023-12-22T03:19:14;7.30;90.30
63277;DHT22;49403;51.046;13.780;2023-12-22T03:19:45;7.30;90.00
63277;DHT22;49403;51.046;13.780;2023-12-22T03:20:16;7.30;89.90
63277;DHT22;49403;51.046;13.780;2023-12-22T03:20:47;7.20;89.60